Chriesman, Texas
Current Conditions -  °F | °C
As of 3:55 AM on Friday 19 Dec 2014 (Local Time) from KRWV Reporting Station
Heavy Rain Heavy Rain  
Wind Chill: 50°   Ceiling: 200
Heat Index: 50°   Visibility: 5mi
Dew Point: 50°   Wind: 6mph
Humidity: 100%   Direction: 20°NNE
Pressure: 30.09"   Gusts: NA
Location:  30.6°N, 96.77°W
Report Text: KRWV 190955Z AUTO 02005KT 5SM +RA BKN002 OVC007 10/10 A3009 RMK AO2 LTG DSNT NE AND E AND W P0032
Loading
Personal Weather Stations






























Interactive Weather Map New forecast layout! Learn more

10-Day Weather Forecast

Advertisements
Track Severe Weather on mobile